createdAt,value
2019-03-11T00:01:56.657Z,98360.00
2019-03-11T00:04:24.820Z,98369.00
2019-03-11T00:06:52.516Z,98393.00
2019-03-11T00:09:19.674Z,98390.00
2019-03-11T00:11:46.795Z,98385.00
2019-03-11T00:14:13.937Z,98391.00
2019-03-11T00:16:41.081Z,98389.00
2019-03-11T00:19:08.296Z,98409.00
2019-03-11T00:21:35.476Z,98413.00
2019-03-11T00:24:02.636Z,98424.00
2019-03-11T00:26:29.776Z,98452.00
2019-03-11T00:28:56.975Z,98457.00
2019-03-11T00:31:24.056Z,98464.00
2019-03-11T00:33:51.395Z,98477.00
2019-03-11T00:36:18.655Z,98480.00
2019-03-11T00:38:45.797Z,98473.00
2019-03-11T00:41:12.895Z,98479.00
2019-03-11T00:43:40.155Z,98480.00
2019-03-11T00:46:07.597Z,98489.00
2019-03-11T00:48:34.719Z,98506.00
2019-03-11T00:51:21.655Z,98513.00
2019-03-11T00:53:49.055Z,98502.00
2019-03-11T00:56:16.235Z,98491.00
2019-03-11T00:58:43.402Z,98494.00
2019-03-11T01:01:10.577Z,98509.00
2019-03-11T01:03:37.976Z,98503.00
2019-03-11T01:06:05.578Z,98510.00
2019-03-11T01:08:32.736Z,98511.00
2019-03-11T01:10:59.876Z,98517.00
2019-03-11T01:13:27.114Z,98502.00
2019-03-11T01:15:54.715Z,98507.00
2019-03-11T01:18:21.965Z,98504.00
2019-03-11T01:20:49.296Z,98507.00
2019-03-11T01:23:16.575Z,98502.00
2019-03-11T01:25:43.715Z,98499.00
2019-03-11T01:28:11.276Z,98500.00
2019-03-11T01:30:38.475Z,98508.00
2019-03-11T01:33:05.596Z,98522.00
2019-03-11T01:35:32.758Z,98527.00
2019-03-11T01:37:59.946Z,98526.00
2019-03-11T01:40:27.120Z,98529.00
2019-03-11T01:42:54.499Z,98538.00
2019-03-11T01:45:21.635Z,98543.00
2019-03-11T01:47:48.775Z,98554.00
2019-03-11T01:50:16.415Z,98559.00
2019-03-11T01:52:43.561Z,98558.00
2019-03-11T01:55:13.425Z,98565.00
2019-03-11T01:57:40.715Z,98575.00
2019-03-11T02:00:12.542Z,98580.00
2019-03-11T02:02:39.716Z,98583.00
2019-03-11T02:05:07.216Z,98589.00
2019-03-11T02:07:34.382Z,98592.00
2019-03-11T02:10:01.536Z,98574.00
2019-03-11T02:12:28.720Z,98582.00
2019-03-11T02:14:55.817Z,98582.00
2019-03-11T02:17:22.959Z,98581.00
2019-03-11T02:19:50.256Z,98581.00
2019-03-11T02:22:17.395Z,98589.00
2019-03-11T02:24:44.535Z,98589.00
2019-03-11T02:27:11.935Z,98606.00
2019-03-11T02:29:39.136Z,98602.00
2019-03-11T02:32:06.277Z,98607.00
2019-03-11T02:34:33.576Z,98602.00
2019-03-11T02:37:00.741Z,98618.00
2019-03-11T02:39:27.919Z,98613.00
2019-03-11T02:41:55.077Z,98608.00
2019-03-11T02:44:22.517Z,98611.00
2019-03-11T02:46:49.677Z,98608.00
2019-03-11T02:49:16.898Z,98606.00
2019-03-11T02:51:44.377Z,98604.00
2019-03-11T02:54:11.556Z,98601.00
2019-03-11T02:56:38.798Z,98606.00
2019-03-11T02:59:05.956Z,98602.00
2019-03-11T03:01:37.912Z,98606.00
2019-03-11T03:04:09.718Z,98606.00
2019-03-11T03:06:36.883Z,98605.00
2019-03-11T03:09:09.416Z,98601.00
2019-03-11T03:11:36.612Z,98598.00
2019-03-11T03:14:03.798Z,98598.00
2019-03-11T03:16:30.977Z,98597.00
2019-03-11T03:18:58.098Z,98601.00
2019-03-11T03:21:25.259Z,98603.00
2019-03-11T03:23:52.395Z,98600.00
2019-03-11T03:26:19.578Z,98604.00
2019-03-11T03:28:46.716Z,98605.00
2019-03-11T03:31:13.900Z,98597.00
2019-03-11T03:33:41.522Z,98609.00
2019-03-11T03:36:08.757Z,98613.00
2019-03-11T03:38:35.903Z,98606.00
2019-03-11T03:41:03.186Z,98596.00
2019-03-11T03:43:30.301Z,98603.00
2019-03-11T03:45:57.377Z,98603.00
2019-03-11T03:48:24.992Z,98602.00
2019-03-11T03:50:52.176Z,98598.00
2019-03-11T03:53:19.404Z,98600.00
2019-03-11T03:55:46.958Z,98598.00
2019-03-11T03:58:14.516Z,98600.00
2019-03-11T04:00:41.599Z,98604.00
2019-03-11T04:03:08.762Z,98610.00
2019-03-11T04:05:36.102Z,98602.00
2019-03-11T04:08:03.357Z,98607.00
2019-03-11T04:10:32.535Z,98597.00
2019-03-11T04:12:59.758Z,98599.00
2019-03-11T04:15:26.946Z,98603.00
2019-03-11T04:17:54.426Z,98605.00
2019-03-11T04:20:26.797Z,98602.00
2019-03-11T04:22:54.241Z,98601.00
2019-03-11T04:25:21.736Z,98595.00
2019-03-11T04:27:49.126Z,98603.00
2019-03-11T04:30:27.729Z,98597.00
2019-03-11T04:32:55.297Z,98603.00
2019-03-11T04:35:22.747Z,98590.00
2019-03-11T04:37:50.416Z,98595.00
2019-03-11T04:40:17.676Z,98594.00
2019-03-11T04:42:44.896Z,98601.00
2019-03-11T04:45:14.916Z,98593.00
2019-03-11T04:47:43.015Z,98604.00
2019-03-11T04:50:16.415Z,98600.00
2019-03-11T04:52:44.335Z,98587.00
2019-03-11T04:55:14.295Z,98593.00
2019-03-11T04:57:54.702Z,98587.00
2019-03-11T05:00:32.476Z,98591.00
2019-03-11T05:02:59.956Z,98590.00
2019-03-11T05:05:27.095Z,98593.00
2019-03-11T05:07:54.295Z,98582.00
2019-03-11T05:10:21.537Z,98590.00
2019-03-11T05:12:48.656Z,98596.00
2019-03-11T05:15:15.975Z,98589.00
2019-03-11T05:17:43.496Z,98592.00
2019-03-11T05:20:13.478Z,98589.00
2019-03-11T05:22:41.035Z,98582.00
2019-03-11T05:25:14.135Z,98582.00
2019-03-11T05:27:41.475Z,98576.00
2019-03-11T05:30:17.436Z,98576.00
2019-03-11T05:32:45.039Z,98578.00
2019-03-11T05:35:12.739Z,98570.00
2019-03-11T05:37:39.957Z,98572.00
2019-03-11T05:40:18.724Z,98560.00
2019-03-11T05:42:45.936Z,98574.00
2019-03-11T05:45:15.697Z,98570.00
2019-03-11T05:47:43.439Z,98564.00
2019-03-11T05:50:15.740Z,98575.00
2019-03-11T05:52:42.897Z,98566.00
2019-03-11T05:55:11.455Z,98561.00
2019-03-11T05:57:38.857Z,98561.00
2019-03-11T06:00:23.556Z,98554.00
2019-03-11T06:02:50.815Z,98560.00
2019-03-11T06:05:17.957Z,98545.00
2019-03-11T06:07:45.436Z,98545.00
2019-03-11T06:10:14.456Z,98542.00
2019-03-11T06:12:41.935Z,98551.00
2019-03-11T06:15:12.221Z,98552.00
2019-03-11T06:17:39.489Z,98554.00
2019-03-11T06:20:29.175Z,98556.00
2019-03-11T06:22:56.871Z,98555.00
2019-03-11T06:25:24.193Z,98552.00
2019-03-11T06:27:51.367Z,98544.00
2019-03-11T06:30:18.787Z,98540.00
2019-03-11T06:32:45.993Z,98537.00
2019-03-11T06:35:13.247Z,98527.00
2019-03-11T06:37:40.897Z,98529.00
2019-03-11T06:40:12.229Z,98531.00
2019-03-11T06:42:39.367Z,98536.00
2019-03-11T06:45:11.146Z,98534.00
2019-03-11T06:47:38.609Z,98535.00
2019-03-11T06:50:09.806Z,98528.00
2019-03-11T06:52:37.266Z,98517.00
2019-03-11T06:55:10.606Z,98520.00
2019-03-11T06:57:37.767Z,98524.00
2019-03-11T07:00:13.100Z,98519.00
2019-03-11T07:02:40.268Z,98517.00
2019-03-11T07:05:18.907Z,98520.00
2019-03-11T07:07:36.707Z,98529.00
2019-03-11T07:10:13.944Z,98521.00
2019-03-11T07:12:41.186Z,98539.00
2019-03-11T07:15:14.767Z,98515.00
2019-03-11T07:17:41.947Z,98516.00
2019-03-11T07:20:15.569Z,98521.00
2019-03-11T07:22:42.771Z,98517.00
2019-03-11T07:25:10.166Z,98509.00
2019-03-11T07:27:37.390Z,98509.00
2019-03-11T07:30:15.746Z,98506.00
2019-03-11T07:32:42.966Z,98499.00
2019-03-11T07:35:10.226Z,98506.00
2019-03-11T07:37:37.589Z,98490.00
2019-03-11T07:40:13.176Z,98483.00
2019-03-11T07:42:40.429Z,98478.00
2019-03-11T07:45:10.692Z,98475.00
2019-03-11T07:47:37.872Z,98470.00
2019-03-11T07:50:07.447Z,98475.00
2019-03-11T07:52:35.052Z,98468.00
2019-03-11T07:55:03.227Z,98465.00
2019-03-11T07:57:30.366Z,98465.00
2019-03-11T07:59:57.527Z,98448.00
2019-03-11T08:02:25.106Z,98448.00
2019-03-11T08:04:52.269Z,98442.00
2019-03-11T08:07:19.426Z,98441.00
2019-03-11T08:09:46.729Z,98431.00
2019-03-11T08:12:13.906Z,98420.00
2019-03-11T08:14:41.074Z,98423.00
2019-03-11T08:17:08.401Z,98413.00
2019-03-11T08:19:35.587Z,98410.00
2019-03-11T08:22:02.946Z,98400.00
2019-03-11T08:24:30.187Z,98396.00
2019-03-11T08:26:57.347Z,98399.00
2019-03-11T08:29:24.426Z,98391.00
2019-03-11T08:31:51.606Z,98387.00
2019-03-11T08:34:18.749Z,98388.00
2019-03-11T08:36:45.906Z,98392.00
2019-03-11T08:39:13.106Z,98373.00
2019-03-11T08:41:40.274Z,98368.00
2019-03-11T08:44:07.434Z,98372.00
2019-03-11T08:46:34.676Z,98374.00
2019-03-11T08:49:01.867Z,98370.00
2019-03-11T08:51:28.988Z,98352.00
2019-03-11T08:53:56.447Z,98354.00
2019-03-11T08:56:23.583Z,98361.00
2019-03-11T08:58:50.750Z,98338.00
2019-03-11T09:01:17.869Z,98341.00
2019-03-11T09:03:47.704Z,98337.00
2019-03-11T09:06:14.593Z,98330.00
2019-03-11T09:08:41.786Z,98320.00
2019-03-11T09:11:08.926Z,98320.00
2019-03-11T09:13:36.066Z,98308.00
2019-03-11T09:16:03.946Z,98315.00
2019-03-11T09:18:31.127Z,98303.00
2019-03-11T09:20:58.267Z,98300.00
2019-03-11T09:23:25.687Z,98300.00
2019-03-11T09:25:52.850Z,98313.00
2019-03-11T09:28:20.045Z,98302.00
2019-03-11T09:30:47.267Z,98320.00
2019-03-11T09:33:14.407Z,98292.00
2019-03-11T09:35:42.206Z,98266.00
2019-03-11T09:38:09.386Z,98303.00
2019-03-11T09:40:36.527Z,98297.00
2019-03-11T09:43:03.628Z,98297.00
2019-03-11T09:45:30.866Z,98294.00
2019-03-11T09:47:58.073Z,98313.00
2019-03-11T09:50:25.299Z,98320.00
2019-03-11T09:52:52.587Z,98313.00
2019-03-11T09:55:22.648Z,98324.00
2019-03-11T09:57:49.967Z,98322.00
2019-03-11T10:00:31.698Z,98331.00
2019-03-11T10:02:58.927Z,98344.00
2019-03-11T10:05:26.447Z,98363.00
2019-03-11T10:07:53.760Z,98363.00
2019-03-11T10:10:23.867Z,98365.00
2019-03-11T10:12:51.548Z,98385.00
2019-03-11T10:15:19.869Z,98405.00
2019-03-11T10:17:47.426Z,98409.00
2019-03-11T10:20:18.907Z,98415.00
2019-03-11T10:22:46.649Z,98422.00
2019-03-11T10:25:16.889Z,98442.00
2019-03-11T10:27:44.290Z,98464.00
2019-03-11T10:30:23.527Z,98487.00
2019-03-11T10:32:50.876Z,98529.00
2019-03-11T10:35:31.413Z,98570.00
2019-03-11T10:37:48.887Z,98592.00
2019-03-11T10:40:30.424Z,98596.00
2019-03-11T10:42:57.627Z,98603.00
2019-03-11T10:45:31.299Z,98591.00
2019-03-11T10:47:53.986Z,98572.00
2019-03-11T10:50:21.453Z,98566.00
2019-03-11T10:52:48.766Z,98552.00
2019-03-11T10:55:21.768Z,98566.00
2019-03-11T10:57:48.975Z,98584.00
2019-03-11T11:00:27.648Z,98585.00
2019-03-11T11:02:55.009Z,98589.00
2019-03-11T11:05:22.288Z,98597.00
2019-03-11T11:07:49.527Z,98607.00
2019-03-11T11:10:17.829Z,98611.00
2019-03-11T11:12:45.090Z,98617.00
2019-03-11T11:15:38.035Z,98615.00
2019-03-11T11:18:05.208Z,98610.00
2019-03-11T11:20:32.486Z,98611.00
2019-03-11T11:22:59.807Z,98615.00
2019-03-11T11:25:28.969Z,98607.00
2019-03-11T11:27:56.455Z,98598.00
2019-03-11T11:30:32.769Z,98591.00
2019-03-11T11:32:59.946Z,98592.00
2019-03-11T11:35:27.089Z,98593.00
2019-03-11T11:37:54.353Z,98603.00
2019-03-11T11:40:26.069Z,98603.00
2019-03-11T11:42:53.311Z,98594.00
2019-03-11T11:45:25.941Z,98589.00
2019-03-11T11:47:53.316Z,98592.00
2019-03-11T11:50:22.030Z,98568.00
2019-03-11T11:52:49.743Z,98561.00
2019-03-11T11:55:19.164Z,98593.00
2019-03-11T11:57:46.359Z,98589.00
2019-03-11T12:00:28.910Z,98593.00
2019-03-11T12:02:56.116Z,98582.00
2019-03-11T12:05:23.509Z,98590.00
2019-03-11T12:07:50.813Z,98577.00
2019-03-11T12:10:20.988Z,98585.00
2019-03-11T12:12:48.228Z,98572.00
2019-03-11T12:15:15.839Z,98583.00
2019-03-11T12:17:43.357Z,98588.00
2019-03-11T12:20:17.709Z,98584.00
2019-03-11T12:22:44.893Z,98579.00
2019-03-11T12:25:14.749Z,98591.00
2019-03-11T12:27:53.148Z,98598.00
2019-03-11T12:30:28.089Z,98593.00
2019-03-11T12:32:55.608Z,98600.00
2019-03-11T12:35:23.089Z,98582.00
2019-03-11T12:37:50.407Z,98573.00
2019-03-11T12:40:17.870Z,98583.00
2019-03-11T12:42:45.728Z,98589.00
2019-03-11T12:45:17.626Z,98581.00
2019-03-11T12:47:44.827Z,98571.00
2019-03-11T12:50:30.287Z,98579.00
2019-03-11T12:52:57.468Z,98580.00
2019-03-11T12:55:24.609Z,98590.00
2019-03-11T12:57:52.227Z,98575.00
2019-03-11T13:00:21.049Z,98589.00
2019-03-11T13:02:48.347Z,98588.00
2019-03-11T13:05:16.427Z,98604.00
2019-03-11T13:07:43.648Z,98606.00
2019-03-11T13:10:23.434Z,98595.00
2019-03-11T13:13:12.146Z,98600.00
2019-03-11T13:15:39.367Z,98604.00
2019-03-11T13:18:34.070Z,98572.00
2019-03-11T13:21:06.749Z,98592.00
2019-03-11T13:23:34.508Z,98591.00
2019-03-11T13:26:01.608Z,98593.00
2019-03-11T13:28:29.071Z,98599.00
2019-03-11T13:30:56.507Z,98592.00
2019-03-11T13:33:24.206Z,98628.00
2019-03-11T13:35:51.426Z,98632.00
2019-03-11T13:38:19.006Z,98630.00
2019-03-11T13:40:46.147Z,98635.00
2019-03-11T13:43:33.048Z,98627.00
2019-03-11T13:46:00.268Z,98646.00
2019-03-11T13:48:27.508Z,98646.00
2019-03-11T13:50:54.728Z,98643.00
2019-03-11T13:53:22.069Z,98639.00
2019-03-11T13:55:49.228Z,98636.00
2019-03-11T13:58:16.498Z,98644.00
2019-03-11T14:00:43.667Z,98649.00
2019-03-11T14:03:10.791Z,98641.00
2019-03-11T14:05:38.209Z,98641.00
2019-03-11T14:08:05.508Z,98631.00
2019-03-11T14:10:32.728Z,98636.00
2019-03-11T14:12:59.947Z,98627.00
2019-03-11T14:15:27.648Z,98625.00
2019-03-11T14:17:54.834Z,98629.00
2019-03-11T14:20:22.133Z,98634.00
2019-03-11T14:22:49.245Z,98631.00
2019-03-11T14:25:16.447Z,98620.00
2019-03-11T14:27:43.665Z,98618.00
2019-03-11T14:30:32.726Z,98615.00
2019-03-11T14:32:59.935Z,98609.00
2019-03-11T14:35:27.366Z,98607.00
2019-03-11T14:37:54.525Z,98612.00
2019-03-11T14:40:21.706Z,98620.00
2019-03-11T14:42:48.926Z,98611.00
2019-03-11T14:45:20.146Z,98615.00
2019-03-11T14:47:47.305Z,98619.00
2019-03-11T14:50:15.707Z,98622.00
2019-03-11T14:52:42.997Z,98627.00
2019-03-11T14:55:12.307Z,98608.00
2019-03-11T14:57:39.987Z,98621.00
2019-03-11T15:00:18.546Z,98625.00
2019-03-11T15:02:46.490Z,98627.00
2019-03-11T15:05:15.765Z,98630.00
2019-03-11T15:07:42.966Z,98649.00
2019-03-11T15:10:12.927Z,98664.00
2019-03-11T15:12:40.067Z,98676.00
2019-03-11T15:15:11.860Z,98677.00
2019-03-11T15:17:39.099Z,98668.00
2019-03-11T15:20:07.715Z,98665.00
2019-03-11T15:22:35.234Z,98669.00
2019-03-11T15:25:04.201Z,98677.00
2019-03-11T15:27:31.332Z,98671.00
2019-03-11T15:29:58.509Z,98671.00
2019-03-11T15:32:26.208Z,98659.00
2019-03-11T15:34:53.369Z,98661.00
2019-03-11T15:37:20.789Z,98688.00
2019-03-11T15:39:49.092Z,98694.00
2019-03-11T15:42:16.728Z,98686.00
2019-03-11T15:44:43.852Z,98675.00
2019-03-11T15:47:11.228Z,98666.00
2019-03-11T15:49:38.401Z,98672.00
2019-03-11T15:52:05.787Z,98681.00
2019-03-11T15:54:32.963Z,98683.00
2019-03-11T15:57:00.109Z,98669.00
2019-03-11T15:59:27.782Z,98680.00
2019-03-11T16:01:55.369Z,98682.00
2019-03-11T16:04:22.499Z,98686.00
2019-03-11T16:06:49.712Z,98684.00
2019-03-11T16:09:19.638Z,98687.00
2019-03-11T16:11:46.111Z,98681.00
2019-03-11T16:14:13.242Z,98684.00
2019-03-11T16:16:40.310Z,98682.00
2019-03-11T16:19:07.625Z,98680.00
2019-03-11T16:21:34.896Z,98687.00
2019-03-11T16:24:02.152Z,98705.00
2019-03-11T16:26:29.408Z,98705.00
2019-03-11T16:28:56.557Z,98708.00
2019-03-11T16:31:23.824Z,98711.00
2019-03-11T16:34:04.037Z,98719.00
2019-03-11T16:36:31.156Z,98730.00
2019-03-11T16:38:58.736Z,98742.00
2019-03-11T16:41:26.003Z,98747.00
2019-03-11T16:43:53.249Z,98727.00
2019-03-11T16:46:20.295Z,98739.00
2019-03-11T16:48:47.493Z,98726.00
2019-03-11T16:51:15.100Z,98736.00
2019-03-11T16:53:42.305Z,98727.00
2019-03-11T16:56:09.554Z,98739.00
2019-03-11T16:58:36.726Z,98744.00
2019-03-11T17:01:06.009Z,98764.00
2019-03-11T17:03:33.166Z,98764.00
2019-03-11T17:06:00.514Z,98767.00
2019-03-11T17:08:27.748Z,98760.00
2019-03-11T17:10:54.987Z,98761.00
2019-03-11T17:13:22.825Z,98768.00
2019-03-11T17:15:50.947Z,98771.00
2019-03-11T17:18:18.366Z,98777.00
2019-03-11T17:20:45.526Z,98778.00
2019-03-11T17:23:12.666Z,98795.00
2019-03-11T17:25:39.907Z,98816.00
2019-03-11T17:28:08.287Z,98821.00
2019-03-11T17:30:35.427Z,98833.00
2019-03-11T17:33:02.617Z,98829.00
2019-03-11T17:35:30.018Z,98828.00
2019-03-11T17:37:57.365Z,98822.00
2019-03-11T17:40:24.899Z,98827.00
2019-03-11T17:42:52.596Z,98840.00
2019-03-11T17:45:20.179Z,98828.00
2019-03-11T17:47:47.497Z,98824.00
2019-03-11T17:50:22.152Z,98826.00
2019-03-11T17:52:49.664Z,98820.00
2019-03-11T17:55:17.827Z,98817.00
2019-03-11T17:57:45.577Z,98808.00
2019-03-11T18:00:25.552Z,98816.00
2019-03-11T18:02:52.556Z,98808.00
2019-03-11T18:05:20.036Z,98809.00
2019-03-11T18:07:47.416Z,98814.00
2019-03-11T18:10:14.845Z,98810.00
2019-03-11T18:12:42.096Z,98814.00
2019-03-11T18:15:12.927Z,98814.00
2019-03-11T18:17:40.402Z,98833.00
2019-03-11T18:20:17.932Z,98831.00
2019-03-11T18:22:45.410Z,98847.00
2019-03-11T18:25:42.810Z,98853.00
2019-03-11T18:28:10.948Z,98864.00
2019-03-11T18:30:38.718Z,98877.00
2019-03-11T18:33:07.070Z,98879.00
2019-03-11T18:35:34.578Z,98876.00
2019-03-11T18:38:05.155Z,98880.00
2019-03-11T18:40:33.157Z,98876.00
2019-03-11T18:43:00.860Z,98881.00
2019-03-11T18:45:29.303Z,98886.00
2019-03-11T18:48:00.374Z,98885.00
2019-03-11T18:50:27.978Z,98900.00
2019-03-11T18:52:55.414Z,98892.00
2019-03-11T18:55:22.959Z,98894.00
2019-03-11T18:57:50.858Z,98906.00
2019-03-11T19:00:21.389Z,98901.00
2019-03-11T19:02:48.976Z,98888.00
2019-03-11T19:05:19.657Z,98908.00
2019-03-11T19:07:47.201Z,98879.00
2019-03-11T19:10:15.353Z,98886.00
2019-03-11T19:12:42.887Z,98895.00
2019-03-11T19:15:14.433Z,98902.00
2019-03-11T19:17:42.483Z,98901.00
2019-03-11T19:20:52.372Z,98895.00
2019-03-11T19:23:19.295Z,98892.00
2019-03-11T19:25:46.492Z,98895.00
2019-03-11T19:28:13.897Z,98907.00
2019-03-11T19:30:41.216Z,98913.00
2019-03-11T19:33:11.007Z,98908.00
2019-03-11T19:35:37.926Z,98915.00
2019-03-11T19:38:05.428Z,98908.00
2019-03-11T19:40:33.916Z,98911.00
2019-03-11T19:43:02.188Z,98907.00
2019-03-11T19:45:30.985Z,98899.00
2019-03-11T19:47:59.843Z,98895.00
2019-03-11T19:50:27.525Z,98915.00
2019-03-11T19:52:59.147Z,98903.00
2019-03-11T19:55:24.860Z,98924.00
2019-03-11T19:57:56.699Z,98912.00
2019-03-11T20:00:26.211Z,98921.00
2019-03-11T20:02:53.508Z,98926.00
2019-03-11T20:05:27.815Z,98928.00
2019-03-11T20:07:55.403Z,98928.00
2019-03-11T20:10:22.975Z,98934.00
2019-03-11T20:12:50.153Z,98934.00
2019-03-11T20:15:17.754Z,98943.00
2019-03-11T20:17:47.060Z,98935.00
2019-03-11T20:20:17.447Z,98937.00
2019-03-11T20:22:45.917Z,98941.00
2019-03-11T20:25:26.629Z,98942.00
2019-03-11T20:27:54.006Z,98942.00
2019-03-11T20:30:22.523Z,98940.00
2019-03-11T20:32:49.851Z,98933.00
2019-03-11T20:35:19.878Z,98932.00
2019-03-11T20:37:47.531Z,98931.00
2019-03-11T20:40:15.093Z,98938.00
2019-03-11T20:42:42.437Z,98931.00
2019-03-11T20:45:14.475Z,98939.00
2019-03-11T20:47:44.611Z,98938.00
2019-03-11T20:50:14.189Z,98942.00
2019-03-11T20:52:42.148Z,98942.00
2019-03-11T20:55:18.515Z,98949.00
2019-03-11T20:57:46.757Z,98952.00
2019-03-11T21:00:23.363Z,98954.00
2019-03-11T21:02:51.092Z,98960.00
2019-03-11T21:05:40.897Z,98947.00
2019-03-11T21:08:08.488Z,98960.00
2019-03-11T21:10:35.869Z,98962.00
2019-03-11T21:16:46.240Z,98953.00
2019-03-11T21:19:13.905Z,98951.00
2019-03-11T21:21:41.287Z,98963.00
2019-03-11T21:24:09.246Z,98953.00
2019-03-11T21:26:47.905Z,98945.00
2019-03-11T21:29:16.197Z,98951.00
2019-03-11T21:31:43.653Z,98945.00
2019-03-11T21:34:11.090Z,98940.00
2019-03-11T21:36:38.762Z,98941.00
2019-03-11T21:39:08.320Z,98949.00
2019-03-11T21:41:35.996Z,98942.00
2019-03-11T21:44:03.643Z,98933.00
2019-03-11T21:46:30.973Z,98941.00
2019-03-11T21:48:58.195Z,98936.00
2019-03-11T21:51:25.971Z,98930.00
2019-03-11T21:53:54.902Z,98930.00
2019-03-11T21:56:22.138Z,98931.00
2019-03-11T21:58:53.285Z,98928.00
2019-03-11T22:01:21.041Z,98930.00
2019-03-11T22:03:48.321Z,98930.00
2019-03-11T22:06:15.760Z,98937.00
2019-03-11T22:08:43.040Z,98929.00
2019-03-11T22:11:10.236Z,98936.00
2019-03-11T22:13:37.623Z,98932.00
2019-03-11T22:16:04.826Z,98934.00
2019-03-11T22:18:32.074Z,98936.00
2019-03-11T22:20:59.543Z,98943.00
2019-03-11T22:23:33.499Z,98944.00
2019-03-11T22:26:00.874Z,98933.00
2019-03-11T22:28:28.267Z,98938.00
2019-03-11T22:30:55.733Z,98936.00
2019-03-11T22:33:23.088Z,98938.00
2019-03-11T22:35:52.197Z,98937.00
2019-03-11T22:38:19.868Z,98944.00
2019-03-11T22:40:47.071Z,98944.00
2019-03-11T22:43:14.229Z,98937.00
2019-03-11T22:45:41.504Z,98941.00
2019-03-11T22:48:08.736Z,98935.00
2019-03-11T22:50:35.951Z,98940.00
2019-03-11T22:53:03.443Z,98928.00
2019-03-11T22:55:30.715Z,98924.00
2019-03-11T22:57:58.302Z,98933.00
2019-03-11T23:00:56.838Z,98929.00
2019-03-11T23:03:25.426Z,98933.00
2019-03-11T23:05:58.070Z,98922.00
2019-03-11T23:08:22.398Z,98924.00
2019-03-11T23:10:49.625Z,98922.00
2019-03-11T23:13:19.925Z,98923.00
2019-03-11T23:15:47.379Z,98928.00
2019-03-11T23:18:14.692Z,98928.00
2019-03-11T23:20:41.952Z,98933.00
2019-03-11T23:23:09.074Z,98927.00
2019-03-11T23:28:03.568Z,98920.00
2019-03-11T23:30:31.528Z,98930.00
2019-03-11T23:32:59.394Z,98928.00
2019-03-11T23:35:26.640Z,98926.00
2019-03-11T23:37:53.964Z,98939.00
2019-03-11T23:40:22.615Z,98922.00
2019-03-11T23:42:49.817Z,98929.00
2019-03-11T23:45:17.001Z,98942.00
2019-03-11T23:47:44.136Z,98947.00
2019-03-11T23:50:13.218Z,98960.00
2019-03-11T23:52:40.292Z,98931.00
2019-03-11T23:55:11.901Z,98946.00
2019-03-11T23:57:38.953Z,98943.00
